Time;durP1;ratioP1;P1;durP2;ratioP2;P2;SDS_P1;SDS_P2;PMS_P1;PMS_P2;Temp;Humidity;BMP_temperature;BMP_pressure;BME280_temperature;BME280_humidity;BME280_pressure;Samples;Min_cycle;Max_cycle;Signal;HPM_P1;HPM_P2
2022/05/29 00:02:22;;;;;;;3.25;1.40;;;;;;;11.13;61.67;99825.19;5103384;28;20020;-73
2022/05/29 00:04:47;;;;;;;2.65;1.65;;;;;;;11.10;61.61;99825.25;5103184;28;20341;-73
2022/05/29 00:07:16;;;;;;;3.33;1.35;;;;;;;11.09;61.57;99833.94;5103423;28;20024;-73
2022/05/29 00:09:45;;;;;;;2.65;1.20;;;;;;;11.09;61.11;99825.28;5103406;28;20514;-72
2022/05/29 00:12:11;;;;;;;5.15;1.48;;;;;;;11.10;60.97;99817.47;5103179;28;20043;-73
2022/05/29 00:14:38;;;;;;;3.50;1.40;;;;;;;11.08;60.57;99818.38;5103450;28;20032;-73
2022/05/29 00:17:04;;;;;;;2.70;1.58;;;;;;;11.06;60.24;99805.44;5103350;28;20023;-73
2022/05/29 00:19:30;;;;;;;3.22;1.48;;;;;;;11.05;60.11;99808.94;5104999;28;20364;-72
2022/05/29 00:21:56;;;;;;;3.97;1.77;;;;;;;11.06;59.87;99809.75;5107419;28;20067;-73
2022/05/29 00:24:22;;;;;;;2.42;1.38;;;;;;;11.04;59.83;99812.38;5107385;28;20028;-73
2022/05/29 00:26:47;;;;;;;2.00;1.40;;;;;;;11.01;59.50;99813.31;5107162;28;20020;-73
2022/05/29 00:29:13;;;;;;;2.35;1.25;;;;;;;10.98;59.34;99817.72;5107164;28;20053;-73
2022/05/29 00:31:38;;;;;;;3.60;1.35;;;;;;;10.96;59.30;99811.72;5107193;28;20047;-73
2022/05/29 00:34:03;;;;;;;2.40;1.20;;;;;;;10.91;59.03;99820.44;5107375;28;20051;-73
2022/05/29 00:36:34;;;;;;;1.50;1.08;;;;;;;10.86;58.84;99817.06;5107098;28;20077;-73
2022/05/29 00:38:59;;;;;;;2.72;1.10;;;;;;;10.83;58.50;99811.09;5107315;28;20031;-73
2022/05/29 00:41:32;;;;;;;3.38;1.27;;;;;;;10.77;58.35;99812.91;5106970;28;20020;-72
2022/05/29 00:44:26;;;;;;;1.63;1.20;;;;;;;10.77;58.28;99806.84;5107261;28;20024;-73
2022/05/29 00:47:12;;;;;;;3.08;1.33;;;;;;;10.74;57.80;99807.78;5106906;28;20024;-73
2022/05/29 00:49:39;;;;;;;2.47;1.40;;;;;;;10.73;57.60;99813.00;5106811;28;20039;-72
2022/05/29 00:52:25;;;;;;;1.67;1.02;;;;;;;10.71;57.62;99814.75;5106825;28;20043;-73
2022/05/29 00:55:00;;;;;;;1.65;1.05;;;;;;;10.63;57.48;99802.78;5106959;28;20024;-72
2022/05/29 00:57:32;;;;;;;2.97;1.25;;;;;;;10.65;57.35;99816.56;5106896;28;20028;-73
2022/05/29 01:00:26;;;;;;;1.50;1.20;;;;;;;10.66;56.89;99818.31;5106957;28;20036;-73
2022/05/29 01:02:54;;;;;;;1.83;1.30;;;;;;;10.62;56.76;99818.38;5103169;28;20062;-72
2022/05/29 01:05:21;;;;;;;1.60;1.10;;;;;;;10.55;56.60;99817.63;5106584;28;20084;-74
2022/05/29 01:07:54;;;;;;;3.20;1.20;;;;;;;10.52;56.58;99822.88;5106647;28;20027;-72
2022/05/29 01:10:27;;;;;;;1.58;1.05;;;;;;;10.46;56.82;99830.75;5106784;28;20016;-72
2022/05/29 01:13:13;;;;;;;1.90;1.25;;;;;;;10.37;56.95;99817.03;5106489;28;20031;-73
2022/05/29 01:16:04;;;;;;;3.63;1.75;;;;;;;10.35;57.44;99823.97;5106602;28;20030;-72
2022/05/29 01:18:47;;;;;;;2.13;1.48;;;;;;;10.27;57.92;99825.88;5106709;28;20055;-72
2022/05/29 01:21:27;;;;;;;3.17;1.67;;;;;;;10.23;58.14;99824.19;5106354;28;20083;-72
2022/05/29 01:24:11;;;;;;;5.32;3.30;;;;;;;10.14;58.61;99828.63;5106428;28;20026;-72
2022/05/29 01:27:03;;;;;;;3.60;1.90;;;;;;;10.06;58.47;99822.75;5106356;28;20027;-72
2022/05/29 01:30:02;;;;;;;4.95;1.75;;;;;;;10.08;58.55;99825.31;5106349;28;20016;-72
2022/05/29 01:32:45;;;;;;;3.47;1.42;;;;;;;10.04;58.38;99829.69;5105513;28;20032;-72
2022/05/29 01:35:23;;;;;;;3.30;1.42;;;;;;;9.99;58.24;99826.28;5105978;28;20023;-73
2022/05/29 01:37:55;;;;;;;1.77;1.13;;;;;;;10.03;58.09;99834.00;5106307;28;20027;-73
2022/05/29 01:40:55;;;;;;;1.48;1.33;;;;;;;10.02;57.90;99831.44;5106147;28;20027;-73
2022/05/29 01:43:34;;;;;;;3.97;1.27;;;;;;;9.99;57.66;99836.66;5088049;28;20101;-73
2022/05/29 01:46:07;;;;;;;2.58;1.45;;;;;;;9.97;57.60;99835.84;5106111;28;20024;-73
2022/05/29 01:49:04;;;;;;;1.50;1.20;;;;;;;9.94;57.49;99831.56;5106203;28;20020;-74
2022/05/29 01:51:46;;;;;;;1.77;1.40;;;;;;;9.94;57.43;99828.97;5105406;28;20040;-73
2022/05/29 01:54:26;;;;;;;1.83;1.10;;;;;;;9.91;57.31;99829.00;5105879;28;20020;-73
2022/05/29 01:57:01;;;;;;;3.75;1.10;;;;;;;9.89;57.25;99838.53;5105840;28;20111;-74
2022/05/29 01:59:34;;;;;;;1.80;1.27;;;;;;;9.88;57.24;99837.69;5105618;28;20109;-73
2022/05/29 02:02:13;;;;;;;2.22;1.40;;;;;;;9.84;57.37;99838.59;5105612;28;20017;-73
2022/05/29 02:04:44;;;;;;;3.15;1.45;;;;;;;9.81;57.36;99835.22;5105297;28;20028;-73
2022/05/29 02:10:20;;;;;;;2.40;1.30;;;;;;;9.70;57.34;99836.22;5105599;28;20031;-73
2022/05/29 02:12:55;;;;;;;2.65;1.40;;;;;;;9.67;57.40;99837.13;5104849;28;20044;-73
2022/05/29 02:15:29;;;;;;;3.15;1.30;;;;;;;9.65;57.41;99841.47;5105372;28;20030;-73
2022/05/29 02:17:59;;;;;;;1.40;1.20;;;;;;;9.62;57.49;99840.66;5105330;28;20020;-73
2022/05/29 02:20:32;;;;;;;2.00;1.25;;;;;;;9.62;57.39;99846.69;5105147;28;20024;-73
2022/05/29 02:23:06;;;;;;;2.22;1.55;;;;;;;9.59;57.66;99840.69;5105372;28;20388;-73
2022/05/29 02:25:34;;;;;;;2.70;1.40;;;;;;;9.55;57.56;99843.31;5105169;28;20035;-73
2022/05/29 02:28:08;;;;;;;3.08;1.45;;;;;;;9.53;58.15;99841.63;5105187;28;20103;-73
2022/05/29 02:30:52;;;;;;;2.55;1.42;;;;;;;9.42;58.23;99832.25;5105069;28;20131;-73
2022/05/29 02:33:29;;;;;;;4.55;1.50;;;;;;;9.44;58.70;99840.00;5105027;28;20024;-73
2022/05/29 02:36:19;;;;;;;2.45;1.55;;;;;;;9.40;58.74;99846.97;5104775;28;20090;-73
2022/05/29 02:39:12;;;;;;;2.72;1.30;;;;;;;9.35;58.79;99845.31;5104774;28;20028;-74
2022/05/29 02:42:07;;;;;;;1.75;1.40;;;;;;;9.30;58.84;99846.22;5104580;28;20079;-73
2022/05/29 02:44:41;;;;;;;2.53;1.35;;;;;;;9.26;59.04;99851.47;5105082;28;20413;-73
2022/05/29 02:47:22;;;;;;;1.65;1.20;;;;;;;9.25;59.01;99855.78;5104673;28;20391;-73
2022/05/29 02:50:02;;;;;;;2.65;1.23;;;;;;;9.23;58.71;99854.97;5104502;28;20028;-70
2022/05/29 02:52:28;;;;;;;3.60;1.08;;;;;;;9.24;58.67;99855.81;5104647;28;20048;-73
2022/05/29 02:54:55;;;;;;;1.45;1.05;;;;;;;9.25;58.71;99855.78;5104398;28;20069;-73
2022/05/29 02:57:20;;;;;;;1.67;1.13;;;;;;;9.21;58.39;99859.31;5104473;28;20032;-73
2022/05/29 02:59:50;;;;;;;1.00;0.90;;;;;;;9.28;58.34;99852.31;5104535;28;20024;-73
2022/05/29 03:02:38;;;;;;;2.50;1.00;;;;;;;9.30;58.20;99858.31;5104443;28;20035;-73
2022/05/29 03:05:12;;;;;;;2.22;1.00;;;;;;;9.37;58.19;99859.97;5104334;28;20024;-73
2022/05/29 03:08:11;;;;;;;3.65;1.08;;;;;;;9.57;58.29;99851.06;5104237;28;20158;-73
2022/05/29 03:10:45;;;;;;;2.22;1.08;;;;;;;9.89;58.25;99847.19;5104277;28;20016;-73
2022/05/29 03:13:41;;;;;;;3.58;1.00;;;;;;;10.26;58.19;99842.31;5104310;28;20024;-73
2022/05/29 03:16:40;;;;;;;6.38;1.13;;;;;;;10.80;57.65;99855.28;5104546;28;20078;-73
2022/05/29 03:19:27;;;;;;;1.15;0.90;;;;;;;11.21;56.60;99855.38;5104315;28;20027;-73
2022/05/29 03:22:01;;;;;;;2.25;1.00;;;;;;;11.59;55.77;99850.25;5104224;28;20031;-73
2022/05/29 03:24:50;;;;;;;3.35;1.05;;;;;;;11.90;54.88;99841.78;5104089;28;20028;-73
2022/05/29 03:27:29;;;;;;;1.25;1.00;;;;;;;12.18;54.68;99843.75;5090936;28;20043;-73
2022/05/29 03:29:57;;;;;;;1.42;1.00;;;;;;;12.48;53.71;99853.44;5104330;28;20020;-73
2022/05/29 03:32:24;;;;;;;2.40;1.08;;;;;;;12.69;52.94;99854.66;5103733;28;20054;-73
2022/05/29 03:34:49;;;;;;;1.00;0.70;;;;;;;12.93;52.24;99854.03;5103737;28;20016;-73
2022/05/29 03:37:15;;;;;;;1.60;0.90;;;;;;;13.03;51.54;99845.06;5103872;28;20099;-73
2022/05/29 03:39:40;;;;;;;1.98;0.90;;;;;;;13.21;50.79;99845.47;5103857;28;20043;-73
2022/05/29 03:42:06;;;;;;;2.13;0.80;;;;;;;13.29;50.64;99848.69;5103713;28;20023;-73
2022/05/29 03:44:32;;;;;;;1.33;0.90;;;;;;;13.48;50.54;99848.16;5103879;28;20039;-74
2022/05/29 03:46:57;;;;;;;1.58;0.80;;;;;;;13.74;49.29;99843.91;5103577;28;20036;-73
2022/05/29 03:49:23;;;;;;;1.90;1.02;;;;;;;13.88;48.83;99846.97;5103702;28;20081;-73
2022/05/29 03:51:49;;;;;;;1.58;1.00;;;;;;;14.04;48.34;99846.47;5103409;28;20134;-74
2022/05/29 03:54:15;;;;;;;1.08;0.65;;;;;;;14.27;47.80;99850.09;5102969;28;20056;-73
2022/05/29 03:56:41;;;;;;;3.28;0.90;;;;;;;14.54;47.02;99851.84;5103640;28;20418;-74
2022/05/29 03:59:06;;;;;;;1.15;0.70;;;;;;;14.66;46.36;99855.81;5103659;28;20027;-74
2022/05/29 04:01:32;;;;;;;1.65;0.90;;;;;;;14.80;45.64;99864.06;5103302;28;20157;-73
2022/05/29 04:03:57;;;;;;;3.45;1.13;;;;;;;14.84;44.79;99854.34;5103606;28;20028;-74
2022/05/29 04:06:25;;;;;;;1.95;1.05;;;;;;;14.92;44.52;99861.91;5103148;28;20019;-73
2022/05/29 04:14:22;;;;;;;2.75;0.80;;;;;;;15.42;43.64;99855.75;5103629;28;20091;-73
2022/05/29 04:16:48;;;;;;;1.25;0.75;;;;;;;15.53;43.58;99854.50;5102913;28;20051;-74
2022/05/29 04:19:14;;;;;;;1.50;0.80;;;;;;;15.58;42.57;99853.41;5103173;28;20016;-74
2022/05/29 04:21:39;;;;;;;1.80;0.90;;;;;;;15.58;42.84;99850.78;5102769;28;20024;-74
2022/05/29 04:24:05;;;;;;;0.90;0.80;;;;;;;15.71;42.22;99848.56;5102773;28;20032;-73
2022/05/29 04:26:30;;;;;;;0.85;0.60;;;;;;;15.87;42.08;99853.19;5102733;28;20056;-74
2022/05/29 04:28:56;;;;;;;1.10;0.80;;;;;;;15.91;41.84;99851.28;5102723;28;20081;-73
2022/05/29 04:31:21;;;;;;;2.13;0.70;;;;;;;15.99;41.60;99857.09;5102413;28;20028;-73
2022/05/29 04:33:46;;;;;;;2.28;1.30;;;;;;;16.05;41.69;99848.16;5102684;28;20024;-74
2022/05/29 04:36:12;;;;;;;1.35;0.70;;;;;;;16.11;41.47;99847.91;5102480;28;20489;-73
2022/05/29 04:38:37;;;;;;;2.55;1.00;;;;;;;16.22;41.73;99845.69;5102686;28;20020;-73
2022/05/29 04:41:08;;;;;;;1.48;0.93;;;;;;;16.45;41.75;99848.28;5084591;28;20028;-73
2022/05/29 04:43:34;;;;;;;0.68;0.60;;;;;;;16.69;40.66;99845.53;5102653;28;20020;-73
2022/05/29 04:46:00;;;;;;;0.80;0.63;;;;;;;16.84;40.62;99844.00;5102579;28;20060;-72
2022/05/29 04:48:25;;;;;;;1.05;0.70;;;;;;;16.98;40.83;99851.28;5102561;28;20020;-73
2022/05/29 04:50:57;;;;;;;1.50;0.80;;;;;;;17.25;40.19;99848.38;5102029;28;20051;-72
2022/05/29 04:53:22;;;;;;;1.35;0.80;;;;;;;17.39;39.60;99854.75;5102722;28;20083;-72
2022/05/29 04:55:52;;;;;;;0.93;0.60;;;;;;;17.51;39.54;99838.41;5102379;28;20028;-72
2022/05/29 04:58:17;;;;;;;0.85;0.60;;;;;;;17.78;38.93;99845.91;5102476;28;20408;-73
2022/05/29 05:00:43;;;;;;;1.35;0.68;;;;;;;18.04;38.65;99849.06;5102689;28;20555;-72
2022/05/29 05:03:08;;;;;;;1.75;0.80;;;;;;;18.21;38.45;99842.19;5102521;28;20026;-72
2022/05/29 05:05:34;;;;;;;2.70;0.80;;;;;;;18.36;37.33;99845.81;5103996;28;20179;-72
2022/05/29 05:07:59;;;;;;;0.82;0.75;;;;;;;18.26;37.38;99855.91;5105982;28;20020;-72
2022/05/29 05:10:24;;;;;;;2.80;0.80;;;;;;;18.18;37.77;99837.91;5106092;28;20451;-72
2022/05/29 05:12:50;;;;;;;0.85;0.60;;;;;;;18.12;36.80;99838.22;5106082;28;20035;-73
2022/05/29 05:15:16;;;;;;;0.75;0.68;;;;;;;17.86;37.34;99842.91;5106079;28;20060;-72
2022/05/29 05:17:42;;;;;;;1.63;0.77;;;;;;;17.83;37.76;99843.94;5105881;28;20081;-73
2022/05/29 05:20:09;;;;;;;1.13;0.55;;;;;;;17.92;36.40;99842.63;5105827;28;20020;-73
2022/05/29 05:22:34;;;;;;;2.17;0.80;;;;;;;17.65;37.10;99834.31;5105777;28;20084;-72
2022/05/29 05:25:01;;;;;;;1.20;0.80;;;;;;;17.67;37.17;99833.31;5105723;28;20028;-72
2022/05/29 05:27:26;;;;;;;1.05;0.63;;;;;;;17.75;37.33;99830.31;5087663;28;20020;-72
2022/05/29 05:29:52;;;;;;;0.68;0.60;;;;;;;18.03;37.26;99834.25;5105825;28;20028;-72
2022/05/29 05:32:17;;;;;;;1.30;0.70;;;;;;;18.13;36.64;99839.06;5105596;28;20024;-72
2022/05/29 05:34:42;;;;;;;1.77;0.63;;;;;;;18.14;36.52;99841.63;5105211;28;20081;-71
2022/05/29 05:37:09;;;;;;;2.85;0.90;;;;;;;18.19;36.47;99833.50;5105376;28;20032;-71
2022/05/29 05:39:35;;;;;;;1.23;0.60;;;;;;;18.30;36.73;99825.94;5105574;28;20016;-72
2022/05/29 05:42:00;;;;;;;3.28;0.80;;;;;;;18.55;36.58;99839.59;5105453;28;20565;-71
2022/05/29 05:44:25;;;;;;;1.23;0.85;;;;;;;18.82;36.03;99839.97;5105270;28;20016;-72
2022/05/29 05:46:56;;;;;;;0.63;0.50;;;;;;;18.90;35.79;99828.19;5105389;28;20019;-72
2022/05/29 05:49:23;;;;;;;1.93;1.00;;;;;;;18.93;35.83;99831.50;5105341;28;20023;-72
2022/05/29 05:51:50;;;;;;;1.30;1.00;;;;;;;19.05;35.58;99839.69;5104767;28;20290;-72
2022/05/29 05:54:16;;;;;;;0.90;0.63;;;;;;;19.18;35.80;99834.66;5105445;28;20023;-71
2022/05/29 05:56:47;;;;;;;2.95;0.73;;;;;;;19.28;35.97;99841.09;5105502;28;20079;-72
2022/05/29 05:59:13;;;;;;;1.03;0.60;;;;;;;19.69;35.49;99842.41;5105056;28;20039;-72
2022/05/29 06:01:39;;;;;;;0.80;0.70;;;;;;;19.88;34.40;99845.78;5104691;28;20020;-71
2022/05/29 06:04:05;;;;;;;2.03;0.60;;;;;;;19.84;33.97;99841.63;5104867;28;20024;-72
2022/05/29 06:06:31;;;;;;;1.23;0.70;;;;;;;19.88;33.80;99843.13;5104894;28;20345;-71
2022/05/29 06:08:57;;;;;;;0.75;0.60;;;;;;;19.73;33.43;99842.25;5105215;28;20020;-72
2022/05/29 06:11:27;;;;;;;1.30;0.70;;;;;;;19.61;33.94;99847.25;5104964;28;20084;-71
2022/05/29 06:13:53;;;;;;;0.70;0.63;;;;;;;19.66;33.05;99849.63;5105242;28;20108;-71
2022/05/29 06:16:18;;;;;;;0.85;0.50;;;;;;;19.56;33.05;99850.13;5104540;28;20024;-71
2022/05/29 06:18:44;;;;;;;0.60;0.50;;;;;;;19.83;33.24;99848.66;5104826;28;20024;-72
2022/05/29 06:21:10;;;;;;;1.50;0.60;;;;;;;20.13;32.70;99845.25;5104813;28;20516;-71
2022/05/29 06:23:38;;;;;;;1.00;0.43;;;;;;;20.02;31.03;99835.34;5105282;28;20024;-72
2022/05/29 06:26:06;;;;;;;0.88;0.50;;;;;;;19.71;31.89;99842.31;5105239;28;20031;-71
2022/05/29 06:28:32;;;;;;;2.35;0.50;;;;;;;19.73;32.25;99837.81;5104777;28;20024;-70
2022/05/29 06:30:58;;;;;;;1.05;0.45;;;;;;;19.90;31.55;99828.97;5105002;28;20035;-72
2022/05/29 06:33:26;;;;;;;4.18;0.52;;;;;;;19.88;31.61;99840.50;5104886;28;20471;-71
2022/05/29 06:35:52;;;;;;;1.65;0.40;;;;;;;20.08;32.42;99839.38;5104736;28;20043;-71
2022/05/29 06:38:17;;;;;;;1.42;0.55;;;;;;;20.22;30.60;99843.88;5104679;28;20028;-71
2022/05/29 06:40:47;;;;;;;0.70;0.50;;;;;;;20.17;30.87;99841.53;5105040;28;20031;-72
2022/05/29 06:43:12;;;;;;;1.25;0.60;;;;;;;20.33;31.13;99851.16;5104971;28;20035;-70
2022/05/29 06:45:37;;;;;;;0.88;0.45;;;;;;;20.51;31.08;99843.94;5105029;28;20024;-71
2022/05/29 06:48:03;;;;;;;1.27;0.60;;;;;;;20.68;30.13;99845.59;5104592;28;20024;-71
2022/05/29 06:50:28;;;;;;;2.30;0.80;;;;;;;20.45;29.94;99832.94;5104375;28;20066;-70
2022/05/29 06:52:54;;;;;;;3.33;0.50;;;;;;;20.28;30.94;99835.63;5104474;28;20085;-71
2022/05/29 06:55:21;;;;;;;3.47;0.70;;;;;;;20.29;30.66;99834.66;5104480;28;20028;-71
2022/05/29 06:57:47;;;;;;;0.80;0.57;;;;;;;20.43;30.69;99838.28;5104472;28;20024;-71
2022/05/29 07:08:29;;;;;;;0.63;0.47;;;;;;;20.43;29.42;99838.28;5104445;28;20039;-70
2022/05/29 07:11:15;;;;;;;0.85;0.50;;;;;;;20.36;28.94;99836.94;5104225;28;20052;-72
2022/05/29 07:13:41;;;;;;;0.98;0.60;;;;;;;20.28;29.40;99837.41;5104181;28;20500;-71
2022/05/29 07:16:06;;;;;;;1.02;0.50;;;;;;;20.47;29.90;99841.56;5104250;28;20054;-72
2022/05/29 07:18:32;;;;;;;0.63;0.50;;;;;;;20.70;29.30;99832.31;5104140;28;20078;-72
2022/05/29 07:21:02;;;;;;;0.57;0.50;;;;;;;20.83;28.95;99842.13;5103942;28;20016;-72
2022/05/29 07:23:28;;;;;;;0.98;0.60;;;;;;;20.81;28.69;99823.75;5104222;28;20032;-72
2022/05/29 07:25:55;;;;;;;1.65;0.40;;;;;;;21.17;28.73;99830.34;5104185;28;20030;-71
2022/05/29 07:28:24;;;;;;;0.93;0.50;;;;;;;21.26;27.84;99828.91;5103211;28;20028;-70
2022/05/29 07:30:50;;;;;;;0.40;0.40;;;;;;;21.21;28.30;99836.28;5103827;28;20024;-71
2022/05/29 07:33:15;;;;;;;0.50;0.43;;;;;;;21.28;27.68;99832.31;5103778;28;20102;-70
2022/05/29 07:35:41;;;;;;;0.45;0.40;;;;;;;21.42;27.49;99836.72;5103620;28;20039;-70
2022/05/29 07:38:06;;;;;;;0.68;0.50;;;;;;;21.37;27.44;99835.31;5103674;28;20521;-71
2022/05/29 07:40:32;;;;;;;0.70;0.50;;;;;;;21.33;28.08;99828.53;5103891;28;20024;-71
2022/05/29 07:45:41;;;;;;;0.77;0.43;;;;;;;21.96;28.28;99828.09;5103886;28;20449;-71
2022/05/29 07:48:07;;;;;;;0.47;0.40;;;;;;;22.46;26.10;99823.00;5103623;28;20047;-73
2022/05/29 07:50:33;;;;;;;0.52;0.40;;;;;;;21.87;26.70;99830.41;5103219;28;20170;-71
2022/05/29 07:52:58;;;;;;;1.33;0.57;;;;;;;21.96;27.26;99818.41;5103574;28;20182;-71
2022/05/29 07:55:23;;;;;;;1.65;0.75;;;;;;;22.58;26.37;99823.97;5103617;28;20053;-71
2022/05/29 07:57:49;;;;;;;1.38;0.73;;;;;;;22.84;25.16;99808.16;5103454;28;20054;-71
2022/05/29 08:00:18;;;;;;;0.73;0.60;;;;;;;22.70;25.23;99814.38;5103437;28;20079;-71
2022/05/29 08:02:44;;;;;;;1.17;0.40;;;;;;;22.52;24.55;99813.81;5103679;28;20047;-71
2022/05/29 08:05:12;;;;;;;1.98;0.50;;;;;;;22.36;24.92;99820.16;5103271;28;20020;-70
2022/05/29 08:07:38;;;;;;;1.65;0.45;;;;;;;22.66;24.30;99812.91;5103864;28;20104;-70
2022/05/29 08:10:04;;;;;;;0.98;0.50;;;;;;;22.74;24.54;99817.66;5103357;28;20090;-70
2022/05/29 08:12:29;;;;;;;0.50;0.50;;;;;;;22.62;24.20;99814.09;5103375;28;20031;-70
2022/05/29 08:14:54;;;;;;;1.25;0.55;;;;;;;22.56;24.73;99811.81;5103743;28;20063;-70
2022/05/29 08:17:20;;;;;;;0.45;0.40;;;;;;;23.00;25.38;99813.19;5103236;28;20111;-70
2022/05/29 08:19:45;;;;;;;1.38;0.43;;;;;;;23.95;24.69;99805.56;5102767;28;20024;-70
2022/05/29 08:22:10;;;;;;;1.40;0.40;;;;;;;24.96;24.03;99813.03;5103017;28;20028;-71
2022/05/29 08:33:01;;;;;;;1.10;0.30;;;;;;;25.72;21.23;99800.00;5102939;28;20395;-71
2022/05/29 08:35:27;;;;;;;1.00;0.32;;;;;;;25.06;21.72;99805.19;5102572;28;20024;-71
2022/05/29 08:37:53;;;;;;;0.77;0.35;;;;;;;24.43;22.62;99802.94;5102659;28;20046;-70
2022/05/29 08:40:19;;;;;;;0.52;0.40;;;;;;;24.36;22.15;99811.38;5104307;28;20047;-71
2022/05/29 08:42:44;;;;;;;0.52;0.40;;;;;;;23.73;23.59;99798.38;5106715;28;20316;-70
2022/05/29 08:45:12;;;;;;;2.20;0.57;;;;;;;24.07;23.92;99803.81;5106445;28;20028;-71
2022/05/29 08:47:39;;;;;;;0.70;0.40;;;;;;;24.93;22.63;99799.16;5106539;28;20027;-73
2022/05/29 08:50:06;;;;;;;0.80;0.57;;;;;;;25.37;22.86;99801.88;5106286;28;20342;-72
2022/05/29 08:52:49;;;;;;;0.90;0.73;;;;;;;25.63;22.03;99796.28;5106659;28;20479;-75
2022/05/29 08:55:34;;;;;;;2.20;0.40;;;;;;;25.42;21.76;99802.34;5088271;28;20039;-74
2022/05/29 08:58:20;;;;;;;2.00;0.47;;;;;;;25.43;22.31;99795.22;5106325;28;20028;-74
2022/05/29 09:01:05;;;;;;;0.50;0.40;;;;;;;25.49;21.51;99798.25;5106603;28;20052;-76
2022/05/29 09:03:39;;;;;;;2.88;0.40;;;;;;;25.56;22.62;99793.25;5106257;28;20019;-75
2022/05/29 09:06:15;;;;;;;1.40;0.43;;;;;;;26.31;21.90;99791.63;5106065;28;20020;-75
2022/05/29 09:08:49;;;;;;;0.77;0.32;;;;;;;26.91;20.23;99803.41;5106197;28;20440;-76
2022/05/29 09:11:21;;;;;;;1.40;0.50;;;;;;;27.26;20.59;99794.16;5106249;28;20024;-76
2022/05/29 09:14:05;;;;;;;1.95;0.47;;;;;;;27.65;20.27;99793.38;5088154;28;20559;-76
2022/05/29 09:16:40;;;;;;;0.98;0.60;;;;;;;27.96;19.25;99789.72;5106147;28;20039;-76
2022/05/29 09:19:20;;;;;;;1.38;0.43;;;;;;;27.99;19.68;99801.94;5106201;28;20080;-66
2022/05/29 09:21:52;;;;;;;1.00;0.40;;;;;;;27.34;20.33;99793.47;5106015;28;20032;-66
2022/05/29 09:24:40;;;;;;;1.00;0.43;;;;;;;26.65;20.73;99791.38;5106216;28;20020;-66
2022/05/29 09:27:09;;;;;;;1.55;0.60;;;;;;;26.61;21.36;99784.66;5105810;28;20062;-66
2022/05/29 09:29:36;;;;;;;2.58;0.60;;;;;;;26.43;21.36;99790.59;5105824;28;20095;-66
2022/05/29 09:32:04;;;;;;;1.08;0.40;;;;;;;26.30;21.58;99797.88;5105494;28;20095;-65
2022/05/29 09:34:29;;;;;;;1.05;0.40;;;;;;;26.41;21.49;99779.22;5105994;28;20030;-75
2022/05/29 09:37:04;;;;;;;1.33;0.50;;;;;;;26.58;21.32;99795.56;5105529;28;20118;-76
2022/05/29 09:39:41;;;;;;;0.35;0.30;;;;;;;26.26;21.33;99796.47;5087857;28;20023;-68
2022/05/29 09:42:15;;;;;;;0.43;0.43;;;;;;;25.59;21.73;99795.66;5105949;28;20027;-67
2022/05/29 09:45:18;;;;;;;0.70;0.45;;;;;;;24.85;22.33;99797.09;5105680;28;20027;-68
2022/05/29 09:50:46;;;;;;;1.80;0.40;;;;;;;25.40;22.79;99795.47;5105636;28;20055;-65
2022/05/29 09:53:21;;;;;;;1.05;0.40;;;;;;;26.28;21.37;99795.38;5104684;28;20035;-68
2022/05/29 09:55:57;;;;;;;1.02;0.40;;;;;;;26.21;20.12;99800.38;5105300;28;20024;-65
2022/05/29 09:58:29;;;;;;;0.68;0.45;;;;;;;25.68;21.28;99791.44;5105319;28;20031;-67
2022/05/29 10:01:01;;;;;;;1.55;0.50;;;;;;;25.42;21.81;99812.13;5105342;28;20079;-65
2022/05/29 10:03:50;;;;;;;4.68;0.40;;;;;;;25.72;21.83;99800.00;5105262;28;20044;-65
2022/05/29 10:06:21;;;;;;;1.58;0.50;;;;;;;25.61;21.53;99811.47;5104993;28;20020;-66
2022/05/29 10:08:48;;;;;;;1.10;0.40;;;;;;;25.30;21.55;99806.00;5105010;28;20024;-65
2022/05/29 10:11:31;;;;;;;2.42;0.50;;;;;;;25.06;21.60;99801.69;5104989;28;20024;-68
2022/05/29 10:14:00;;;;;;;0.73;0.50;;;;;;;25.44;22.08;99808.38;5105012;28;20085;-71
2022/05/29 10:16:44;;;;;;;0.90;0.40;;;;;;;25.35;20.91;99814.47;5087009;28;20024;-68
2022/05/29 10:19:14;;;;;;;0.47;0.30;;;;;;;25.26;20.67;99810.72;5105164;28;20084;-63
2022/05/29 10:21:47;;;;;;;1.27;0.40;;;;;;;25.23;21.27;99795.03;5104883;28;20490;-72
2022/05/29 10:24:28;;;;;;;1.27;0.45;;;;;;;25.36;21.47;99803.69;5105168;28;20035;-70
2022/05/29 10:26:57;;;;;;;0.32;0.30;;;;;;;25.52;20.73;99798.94;5105117;28;20027;-67
2022/05/29 10:29:33;;;;;;;3.10;0.50;;;;;;;25.53;20.15;99801.47;5105174;28;20039;-68
2022/05/29 10:32:03;;;;;;;1.30;0.30;;;;;;;25.61;19.00;99790.22;5105213;28;20069;-68
2022/05/29 10:34:31;;;;;;;0.80;0.45;;;;;;;25.57;18.84;99792.28;5105123;28;20047;-67
2022/05/29 10:36:57;;;;;;;3.38;0.43;;;;;;;26.05;18.68;99787.53;5104735;28;20106;-67
2022/05/29 10:39:31;;;;;;;4.00;1.45;;;;;;;26.41;17.78;99795.19;5105064;28;20016;-68
2022/05/29 10:41:58;;;;;;;1.02;0.50;;;;;;;26.59;16.58;99797.25;5104802;28;20069;-67
2022/05/29 10:44:39;;;;;;;4.75;0.43;;;;;;;26.53;17.06;99800.44;5104932;28;20024;-67
2022/05/29 10:47:16;;;;;;;0.35;0.32;;;;;;;26.27;17.17;99795.50;5104595;28;20024;-67
2022/05/29 10:50:14;;;;;;;0.75;0.50;;;;;;;25.92;17.93;99795.69;5104832;28;20023;-70
2022/05/29 10:53:20;;;;;;;1.65;0.38;;;;;;;25.27;17.81;99800.94;5086540;28;20039;-68
2022/05/29 10:56:16;;;;;;;1.65;0.32;;;;;;;24.88;18.83;99791.53;5105117;28;20057;-67
2022/05/29 10:59:06;;;;;;;1.90;0.60;;;;;;;24.64;18.35;99800.44;5104688;28;20111;-69
2022/05/29 11:04:47;;;;;;;1.58;0.40;;;;;;;23.12;20.32;99800.03;5104545;28;20066;-72
2022/05/29 11:07:21;;;;;;;0.45;0.40;;;;;;;22.51;20.80;99798.88;5103698;28;20034;-71
2022/05/29 11:10:05;;;;;;;0.40;0.30;;;;;;;22.07;22.44;99803.59;5102822;28;20039;-72
2022/05/29 11:12:48;;;;;;;1.17;0.52;;;;;;;21.75;23.06;99787.13;5102751;28;20024;-69
2022/05/29 11:15:36;;;;;;;2.63;0.60;;;;;;;21.54;22.86;99795.50;5103151;28;20024;-69
2022/05/29 11:18:29;;;;;;;0.77;0.40;;;;;;;21.27;24.69;99801.59;5104172;28;20057;-75
2022/05/29 11:21:30;;;;;;;0.63;0.40;;;;;;;21.51;23.75;99790.41;5085667;28;20088;-71
2022/05/29 11:24:09;;;;;;;1.15;0.30;;;;;;;21.75;22.07;99792.41;5086885;28;20028;-70
2022/05/29 11:26:53;;;;;;;1.10;0.50;;;;;;;21.75;22.00;99792.41;5104218;28;20023;-70
2022/05/29 11:29:27;;;;;;;2.67;0.60;;;;;;;21.16;23.09;99791.72;5103947;28;20020;-68
2022/05/29 11:32:01;;;;;;;1.90;0.65;;;;;;;21.49;21.80;99797.56;5103783;28;20024;-68
2022/05/29 11:34:58;;;;;;;2.38;0.50;;;;;;;21.96;21.20;99791.97;5104314;28;20580;-69
2022/05/29 11:37:34;;;;;;;6.22;1.23;;;;;;;22.22;20.68;99797.28;5104159;28;20047;-69
2022/05/29 11:40:15;;;;;;;1.30;0.80;;;;;;;22.29;20.77;99787.16;5103992;28;20464;-70
2022/05/29 11:42:59;;;;;;;2.00;0.95;;;;;;;21.76;21.63;99787.94;5103726;28;20454;-72
2022/05/29 11:51:36;;;;;;;3.08;0.65;;;;;;;20.64;23.28;99795.75;5088883;28;20069;-71
2022/05/29 11:54:28;;;;;;;1.40;0.90;;;;;;;20.25;23.93;99785.72;5103869;28;20043;-70
2022/05/29 11:57:12;;;;;;;1.15;0.70;;;;;;;19.85;24.48;99777.47;5103181;28;20028;-72
2022/05/29 12:00:25;;;;;;;1.15;0.80;;;;;;;19.59;25.05;99793.81;5103550;28;20023;-71
2022/05/29 12:03:02;;;;;;;1.63;0.85;;;;;;;19.32;26.25;99784.75;5000984;28;20468;-71
2022/05/29 12:05:33;;;;;;;0.57;0.47;;;;;;;19.23;26.42;99781.78;5000618;28;20045;-71
2022/05/29 12:07:58;;;;;;;1.08;0.60;;;;;;;19.17;26.10;99788.25;5001114;28;20063;-70
2022/05/29 12:10:31;;;;;;;1.58;0.60;;;;;;;18.93;25.55;99791.22;5000934;28;20042;-70
2022/05/29 12:13:03;;;;;;;0.80;0.50;;;;;;;18.85;26.16;99788.16;5000621;28;20083;-70
2022/05/29 12:15:30;;;;;;;1.35;0.50;;;;;;;18.64;25.56;99781.28;5000397;28;20034;-70
2022/05/29 12:18:06;;;;;;;1.02;0.50;;;;;;;18.43;27.00;99788.53;5000927;28;20042;-70
2022/05/29 12:20:55;;;;;;;1.40;0.65;;;;;;;18.27;27.60;99791.09;5000649;28;20037;-70
2022/05/29 12:23:26;;;;;;;0.55;0.40;;;;;;;18.27;28.83;99789.31;5000963;28;20073;-70
2022/05/29 12:26:10;;;;;;;2.13;0.68;;;;;;;18.25;28.32;99782.44;5000919;28;20505;-71
2022/05/29 12:28:44;;;;;;;1.90;0.70;;;;;;;18.13;29.39;99787.38;5000873;28;20127;-71
2022/05/29 12:31:19;;;;;;;1.67;0.50;;;;;;;17.99;31.10;99789.84;5001122;28;20066;-72
2022/05/29 12:33:45;;;;;;;0.98;0.55;;;;;;;17.81;32.08;99788.00;5000964;28;20022;-72
2022/05/29 12:36:28;;;;;;;1.38;0.90;;;;;;;17.66;32.28;99780.88;5032893;28;20032;-69
2022/05/29 12:39:19;;;;;;;0.85;0.60;;;;;;;17.45;32.25;99783.59;5102986;28;20460;-69
2022/05/29 12:42:24;;;;;;;1.20;0.88;;;;;;;17.19;33.11;99780.44;5102954;28;20119;-66